createdAt,value
2018-04-26T00:00:55.668Z,69.16
2018-04-26T00:03:23.995Z,69.09
2018-04-26T00:05:52.357Z,69.14
2018-04-26T00:08:20.676Z,68.99
2018-04-26T00:10:49.028Z,69.16
2018-04-26T00:13:17.356Z,69.07
2018-04-26T00:15:45.715Z,69.13
2018-04-26T00:18:14.045Z,69.09
2018-04-26T00:20:42.399Z,68.68
2018-04-26T00:23:10.730Z,68.80
2018-04-26T00:25:39.084Z,68.73
2018-04-26T00:28:07.417Z,68.67
2018-04-26T00:30:35.744Z,68.43
2018-04-26T00:33:04.098Z,68.08
2018-04-26T00:35:32.425Z,67.98
2018-04-26T00:38:00.773Z,68.09
2018-04-26T00:40:29.099Z,68.27
2018-04-26T00:42:57.452Z,67.88
2018-04-26T00:45:25.784Z,67.92
2018-04-26T00:47:54.138Z,67.82
2018-04-26T00:50:22.470Z,67.73
2018-04-26T00:52:50.820Z,67.64
2018-04-26T00:55:19.148Z,68.14
2018-04-26T00:57:47.501Z,68.22
2018-04-26T01:00:15.833Z,68.34
2018-04-26T01:02:44.180Z,68.49
2018-04-26T01:05:12.512Z,68.47
2018-04-26T01:07:40.865Z,68.75
2018-04-26T01:10:09.192Z,68.70
2018-04-26T01:12:37.544Z,68.81
2018-04-26T01:15:05.881Z,69.23
2018-04-26T01:17:34.230Z,68.96
2018-04-26T01:20:02.663Z,69.12
2018-04-26T01:22:30.935Z,69.16
2018-04-26T01:24:59.267Z,69.28
2018-04-26T01:27:27.600Z,69.42
2018-04-26T01:29:55.953Z,69.31
2018-04-26T01:32:24.280Z,69.23
2018-04-26T01:34:52.631Z,68.94
2018-04-26T01:37:32.880Z,69.07
2018-04-26T01:40:01.225Z,69.22
2018-04-26T01:42:29.552Z,69.36
2018-04-26T01:44:57.900Z,69.48
2018-04-26T01:47:26.228Z,69.37
2018-04-26T01:49:54.588Z,69.37
2018-04-26T01:52:22.916Z,69.16
2018-04-26T01:54:51.273Z,69.25
2018-04-26T01:57:19.605Z,69.39
2018-04-26T01:59:47.969Z,69.36
2018-04-26T02:02:16.297Z,69.26
2018-04-26T02:04:44.653Z,69.05
2018-04-26T02:07:12.980Z,68.98
2018-04-26T02:09:41.328Z,69.13
2018-04-26T02:12:09.657Z,68.98
2018-04-26T02:14:38.005Z,69.23
2018-04-26T02:17:06.333Z,69.61
2018-04-26T02:19:34.689Z,69.92
2018-04-26T02:22:03.016Z,69.80
2018-04-26T02:24:31.367Z,69.58
2018-04-26T02:26:59.695Z,69.39
2018-04-26T02:29:28.044Z,69.35
2018-04-26T02:31:56.373Z,69.13
2018-04-26T02:34:24.737Z,69.19
2018-04-26T02:36:53.068Z,69.05
2018-04-26T02:39:21.397Z,69.00
2018-04-26T02:41:49.753Z,68.50
2018-04-26T02:44:18.088Z,68.49
2018-04-26T02:46:46.435Z,68.16
2018-04-26T02:49:14.761Z,67.77
2018-04-26T02:51:43.112Z,67.65
2018-04-26T02:54:11.441Z,67.99
2018-04-26T02:56:39.793Z,67.77
2018-04-26T02:59:08.124Z,67.61
2018-04-26T03:01:36.478Z,67.12
2018-04-26T03:04:04.812Z,66.20
2018-04-26T03:06:33.160Z,66.07
2018-04-26T03:09:01.492Z,65.88
2018-04-26T03:11:29.841Z,65.92
2018-04-26T03:13:58.172Z,66.04
2018-04-26T03:16:26.542Z,65.57
2018-04-26T03:18:54.852Z,65.88
2018-04-26T03:21:23.204Z,65.97
2018-04-26T03:23:51.540Z,65.77
2018-04-26T03:26:19.896Z,66.76
2018-04-26T03:28:48.225Z,67.81
2018-04-26T03:31:16.696Z,68.39
2018-04-26T03:33:44.904Z,68.71
2018-04-26T03:36:13.237Z,69.49
2018-04-26T03:38:41.590Z,69.84
2018-04-26T03:41:09.920Z,70.24
2018-04-26T03:43:38.275Z,70.53
2018-04-26T03:46:06.613Z,70.12
2018-04-26T03:48:34.960Z,70.74
2018-04-26T03:51:03.290Z,71.02
2018-04-26T03:53:31.636Z,71.23
2018-04-26T03:55:59.964Z,71.69
2018-04-26T03:58:28.316Z,72.32
2018-04-26T04:01:08.452Z,72.74
2018-04-26T04:03:48.560Z,73.57
2018-04-26T04:06:16.890Z,73.99
2018-04-26T04:08:45.240Z,73.83
2018-04-26T04:11:13.612Z,74.29
2018-04-26T04:13:41.961Z,74.07
2018-04-26T04:16:10.264Z,73.97
2018-04-26T04:18:38.614Z,74.41
2018-04-26T04:21:06.940Z,74.67
2018-04-26T04:23:35.293Z,74.76
2018-04-26T04:26:03.616Z,74.93
2018-04-26T04:28:31.979Z,75.18
2018-04-26T04:31:00.307Z,75.01
2018-04-26T04:33:28.639Z,75.32
2018-04-26T04:35:56.992Z,75.33
2018-04-26T04:38:25.319Z,75.85
2018-04-26T04:40:54.617Z,75.72
2018-04-26T04:43:22.941Z,75.54
2018-04-26T04:45:51.284Z,75.49
2018-04-26T04:48:19.616Z,75.17
2018-04-26T04:50:47.957Z,74.03
2018-04-26T04:53:16.276Z,74.71
2018-04-26T04:55:44.627Z,74.85
2018-04-26T04:58:12.944Z,74.40
2018-04-26T05:00:41.312Z,74.85
2018-04-26T05:03:09.632Z,75.16
2018-04-26T05:05:37.970Z,75.77
2018-04-26T05:08:06.284Z,76.25
2018-04-26T05:10:34.624Z,75.84
2018-04-26T05:13:02.939Z,76.33
2018-04-26T05:15:31.273Z,76.55
2018-04-26T05:17:59.584Z,76.84
2018-04-26T05:20:28.966Z,76.31
2018-04-26T05:22:57.256Z,76.38
2018-04-26T05:25:25.596Z,76.71
2018-04-26T05:27:53.908Z,76.72
2018-04-26T05:30:22.246Z,76.90
2018-04-26T05:32:50.560Z,77.00
2018-04-26T05:35:18.872Z,76.81
2018-04-26T05:37:47.211Z,77.10
2018-04-26T05:40:15.733Z,77.33
2018-04-26T05:42:44.072Z,77.31
2018-04-26T05:45:12.384Z,77.68
2018-04-26T05:47:40.729Z,77.81
2018-04-26T05:50:09.054Z,76.44
2018-04-26T05:52:37.404Z,76.16
2018-04-26T05:55:05.737Z,75.33
2018-04-26T05:57:34.081Z,75.22
2018-04-26T06:00:03.279Z,75.45
2018-04-26T06:02:31.625Z,75.46
2018-04-26T06:04:59.952Z,75.22
2018-04-26T06:07:28.299Z,74.95
2018-04-26T06:09:56.624Z,74.89
2018-04-26T06:12:24.984Z,75.14
2018-04-26T06:14:53.296Z,75.18
2018-04-26T06:17:21.640Z,74.88
2018-04-26T06:19:50.092Z,74.69
2018-04-26T06:22:18.436Z,74.82
2018-04-26T06:24:46.757Z,74.58
2018-04-26T06:27:15.109Z,73.58
2018-04-26T06:29:43.428Z,74.12
2018-04-26T06:32:11.769Z,73.92
2018-04-26T06:34:40.096Z,74.02
2018-04-26T06:37:08.416Z,73.72
2018-04-26T06:39:36.768Z,74.24
2018-04-26T06:42:05.090Z,74.38
2018-04-26T06:44:33.432Z,74.49
2018-04-26T06:47:01.761Z,74.41
2018-04-26T06:49:30.105Z,75.05
2018-04-26T06:51:58.424Z,74.45
2018-04-26T06:54:26.773Z,75.25
2018-04-26T06:56:55.097Z,75.22
2018-04-26T06:59:23.444Z,75.23
2018-04-26T07:01:51.772Z,75.29
2018-04-26T07:04:20.125Z,75.22
2018-04-26T07:06:48.461Z,75.43
2018-04-26T07:09:16.812Z,75.59
2018-04-26T07:11:45.141Z,76.30
2018-04-26T07:14:13.496Z,76.46
2018-04-26T07:16:41.821Z,76.36
2018-04-26T07:19:10.165Z,75.78
2018-04-26T07:21:38.492Z,76.20
2018-04-26T07:24:06.841Z,75.65
2018-04-26T07:26:36.063Z,75.74
2018-04-26T07:29:04.420Z,75.76
2018-04-26T07:31:32.751Z,76.08
2018-04-26T07:34:01.426Z,75.67
2018-04-26T07:36:29.805Z,75.80
2018-04-26T07:38:58.160Z,76.24
2018-04-26T07:41:26.494Z,76.27
2018-04-26T07:43:54.820Z,76.07
2018-04-26T07:46:23.175Z,75.83
2018-04-26T07:48:51.497Z,75.83
2018-04-26T07:51:19.854Z,75.50
2018-04-26T07:53:48.185Z,75.77
2018-04-26T07:56:16.528Z,75.84
2018-04-26T07:58:44.890Z,75.30
2018-04-26T08:01:13.236Z,75.92
2018-04-26T08:03:41.573Z,75.26
2018-04-26T08:06:09.929Z,74.93
2018-04-26T08:08:38.265Z,73.95
2018-04-26T08:11:06.620Z,74.76
2018-04-26T08:13:34.952Z,74.25
2018-04-26T08:16:04.516Z,74.07
2018-04-26T08:18:32.876Z,74.37
2018-04-26T08:21:01.241Z,74.01
2018-04-26T08:23:29.572Z,74.16
2018-04-26T08:25:57.923Z,73.48
2018-04-26T08:28:26.249Z,73.29
2018-04-26T08:30:54.597Z,74.32
2018-04-26T08:33:23.697Z,74.05
2018-04-26T08:35:52.070Z,72.80
2018-04-26T08:38:20.395Z,72.94
2018-04-26T08:40:48.752Z,72.60
2018-04-26T08:43:17.077Z,71.47
2018-04-26T08:45:45.433Z,71.52
2018-04-26T08:48:13.780Z,72.31
2018-04-26T08:50:42.117Z,72.37
2018-04-26T08:53:10.524Z,72.47
2018-04-26T08:55:38.861Z,73.72
2018-04-26T08:58:07.208Z,73.88
2018-04-26T09:00:35.537Z,72.94
2018-04-26T09:03:03.879Z,72.49
2018-04-26T09:05:32.212Z,73.29
2018-04-26T09:08:00.555Z,73.90
2018-04-26T09:10:28.864Z,73.41
2018-04-26T09:12:57.212Z,73.40
2018-04-26T09:15:25.545Z,74.16
2018-04-26T09:17:53.883Z,73.90
2018-04-26T09:20:22.210Z,73.94
2018-04-26T09:22:50.564Z,74.47
2018-04-26T09:25:18.952Z,74.74
2018-04-26T09:27:47.292Z,74.11
2018-04-26T09:30:15.616Z,73.90
2018-04-26T09:32:43.965Z,74.07
2018-04-26T09:35:12.284Z,72.67
2018-04-26T09:37:40.637Z,72.05
2018-04-26T09:40:08.961Z,71.30
2018-04-26T09:42:37.324Z,72.71
2018-04-26T09:45:05.672Z,71.72
2018-04-26T09:47:34.006Z,73.19
2018-04-26T09:50:02.368Z,72.52
2018-04-26T09:52:30.696Z,72.82
2018-04-26T09:54:59.048Z,73.22
2018-04-26T09:57:27.372Z,73.39
2018-04-26T09:59:55.724Z,72.03
2018-04-26T10:02:24.909Z,71.47
2018-04-26T10:04:57.184Z,71.43
2018-04-26T10:07:25.517Z,68.56
2018-04-26T10:09:53.871Z,68.13
2018-04-26T10:12:22.193Z,68.27
2018-04-26T10:14:50.548Z,68.42
2018-04-26T10:17:19.083Z,67.89
2018-04-26T10:19:47.476Z,66.84
2018-04-26T10:22:15.805Z,67.49
2018-04-26T10:24:44.160Z,67.40
2018-04-26T10:27:12.492Z,66.92
2018-04-26T10:29:40.844Z,66.47
2018-04-26T10:32:09.177Z,66.10
2018-04-26T10:34:37.528Z,66.47
2018-04-26T10:37:05.855Z,65.47
2018-04-26T10:39:34.216Z,65.50
2018-04-26T10:42:02.541Z,61.49
2018-04-26T10:44:30.908Z,61.48
2018-04-26T10:46:59.241Z,61.97
2018-04-26T10:49:27.569Z,59.46
2018-04-26T10:51:55.913Z,59.97
2018-04-26T10:54:24.248Z,61.25
2018-04-26T10:56:52.597Z,59.03
2018-04-26T10:59:20.933Z,56.97
2018-04-26T11:01:49.486Z,57.04
2018-04-26T11:04:17.857Z,56.22
2018-04-26T11:06:46.273Z,52.97
2018-04-26T11:09:14.620Z,57.39
2018-04-26T11:11:42.940Z,56.91
2018-04-26T11:14:11.260Z,55.60
2018-04-26T11:16:39.612Z,56.21
2018-04-26T11:19:07.949Z,56.03
2018-04-26T11:21:36.361Z,56.88
2018-04-26T11:24:04.724Z,57.98
2018-04-26T11:26:34.029Z,58.03
2018-04-26T11:29:02.353Z,59.02
2018-04-26T11:31:30.705Z,57.30
2018-04-26T11:33:59.033Z,58.10
2018-04-26T11:36:27.380Z,57.46
2018-04-26T11:38:55.709Z,59.80
2018-04-26T11:41:24.050Z,58.29
2018-04-26T11:43:52.369Z,57.63
2018-04-26T11:46:20.728Z,58.32
2018-04-26T11:48:49.052Z,61.70
2018-04-26T11:51:17.773Z,60.16
2018-04-26T11:53:46.121Z,60.73
2018-04-26T11:56:14.512Z,60.71
2018-04-26T11:58:42.799Z,60.21
2018-04-26T12:01:11.125Z,60.00
2018-04-26T12:03:39.472Z,61.58
2018-04-26T12:06:07.791Z,60.04
2018-04-26T12:08:36.144Z,59.83
2018-04-26T12:11:04.469Z,58.23
2018-04-26T12:13:32.812Z,56.39
2018-04-26T12:16:01.144Z,56.97
2018-04-26T12:18:29.508Z,55.95
2018-04-26T12:20:57.804Z,57.71
2018-04-26T12:23:26.161Z,58.00
2018-04-26T12:25:54.489Z,54.12
2018-04-26T12:28:22.837Z,54.59
2018-04-26T12:30:52.153Z,55.67
2018-04-26T12:33:20.500Z,55.78
2018-04-26T12:35:48.832Z,55.73
2018-04-26T12:38:17.181Z,55.75
2018-04-26T12:40:45.508Z,54.41
2018-04-26T12:43:13.849Z,53.33
2018-04-26T12:45:42.217Z,52.59
2018-04-26T12:48:10.560Z,54.15
2018-04-26T12:50:39.016Z,54.60
2018-04-26T12:53:07.341Z,54.68
2018-04-26T12:55:35.692Z,54.76
2018-04-26T12:58:04.098Z,52.94
2018-04-26T13:00:32.373Z,52.67
2018-04-26T13:03:00.701Z,50.84
2018-04-26T13:05:29.053Z,50.49
2018-04-26T13:07:57.387Z,50.43
2018-04-26T13:10:25.733Z,51.71
2018-04-26T13:12:54.060Z,52.36
2018-04-26T13:15:22.413Z,54.33
2018-04-26T13:17:50.762Z,52.73
2018-04-26T13:20:19.109Z,50.94
2018-04-26T13:22:47.436Z,50.44
2018-04-26T13:25:15.797Z,52.46
2018-04-26T13:27:44.122Z,51.61
2018-04-26T13:30:12.468Z,50.88
2018-04-26T13:32:40.796Z,55.22
2018-04-26T13:35:09.149Z,57.23
2018-04-26T13:37:37.477Z,60.21
2018-04-26T13:40:05.833Z,62.59
2018-04-26T13:42:34.169Z,64.12
2018-04-26T13:45:02.525Z,64.67
2018-04-26T13:47:30.850Z,63.54
2018-04-26T13:49:59.894Z,62.25
2018-04-26T13:52:28.309Z,62.82
2018-04-26T13:54:56.658Z,64.84
2018-04-26T13:57:26.176Z,63.02
2018-04-26T13:59:55.631Z,62.23
2018-04-26T14:02:24.246Z,62.31
2018-04-26T14:04:52.902Z,61.59
2018-04-26T14:07:21.465Z,61.66
2018-04-26T14:09:50.003Z,62.21
2018-04-26T14:12:18.706Z,62.93
2018-04-26T14:14:47.321Z,65.60
2018-04-26T14:17:15.766Z,67.07
2018-04-26T14:19:44.165Z,67.48
2018-04-26T14:22:12.501Z,69.71
2018-04-26T14:24:40.824Z,71.40
2018-04-26T14:27:10.164Z,71.93
2018-04-26T14:29:38.544Z,70.78
2018-04-26T14:32:06.845Z,69.20
2018-04-26T14:34:35.194Z,70.23
2018-04-26T14:37:03.542Z,68.34
2018-04-26T14:39:31.864Z,70.74
2018-04-26T14:42:00.213Z,70.52
2018-04-26T14:44:28.544Z,69.49
2018-04-26T14:46:56.884Z,67.80
2018-04-26T14:49:25.214Z,68.11
2018-04-26T14:51:53.540Z,67.64
2018-04-26T14:54:21.888Z,69.27
2018-04-26T14:56:51.211Z,67.00
2018-04-26T14:59:19.546Z,64.82
2018-04-26T15:01:47.868Z,63.52
2018-04-26T15:04:16.218Z,63.84
2018-04-26T15:06:44.589Z,66.01
2018-04-26T15:09:12.984Z,66.16
2018-04-26T15:11:41.319Z,66.71
2018-04-26T15:14:09.661Z,67.20
2018-04-26T15:16:37.993Z,67.45
2018-04-26T15:19:06.336Z,66.38
2018-04-26T15:21:34.662Z,64.99
2018-04-26T15:24:03.013Z,64.55
2018-04-26T15:26:32.329Z,65.60
2018-04-26T15:29:00.672Z,67.03
2018-04-26T15:31:28.996Z,66.74
2018-04-26T15:33:57.345Z,66.84
2018-04-26T15:36:25.669Z,67.65
2018-04-26T15:38:54.085Z,67.16
2018-04-26T15:41:22.335Z,67.02
2018-04-26T15:43:50.685Z,61.53
2018-04-26T15:46:19.005Z,64.55
2018-04-26T15:48:48.061Z,65.70
2018-04-26T15:51:16.389Z,65.79
2018-04-26T15:53:56.648Z,68.01
2018-04-26T15:56:36.868Z,67.42
2018-04-26T15:59:16.953Z,66.57
2018-04-26T16:05:26.773Z,65.31
2018-04-26T16:08:12.636Z,66.95
2018-04-26T16:10:58.676Z,64.37
2018-04-26T16:13:44.396Z,65.78
2018-04-26T16:16:30.360Z,66.58
2018-04-26T16:22:30.900Z,65.02
2018-04-26T16:25:11.208Z,62.69
2018-04-26T16:27:51.241Z,62.02
2018-04-26T16:33:43.265Z,60.70
2018-04-26T16:39:13.476Z,59.30
2018-04-26T16:41:41.841Z,58.74
2018-04-26T16:44:10.166Z,59.53
2018-04-26T16:46:40.444Z,59.33
2018-04-26T16:49:08.819Z,58.80
2018-04-26T16:51:37.117Z,58.23
2018-04-26T16:54:05.465Z,57.41
2018-04-26T16:56:34.769Z,57.75
2018-04-26T16:59:03.121Z,58.51
2018-04-26T17:01:31.449Z,59.17
2018-04-26T17:03:59.789Z,58.56
2018-04-26T17:06:28.112Z,58.25
2018-04-26T17:08:56.469Z,57.47
2018-04-26T17:11:24.788Z,57.92
2018-04-26T17:13:53.128Z,57.48
2018-04-26T17:16:21.453Z,58.39
2018-04-26T17:18:49.796Z,59.42
2018-04-26T17:21:18.129Z,59.48
2018-04-26T17:23:46.477Z,59.69
2018-04-26T17:26:14.808Z,59.55
2018-04-26T17:28:43.163Z,59.11
2018-04-26T17:31:11.476Z,59.97
2018-04-26T17:33:39.836Z,60.05
2018-04-26T17:36:08.164Z,59.68
2018-04-26T17:38:36.509Z,59.07
2018-04-26T17:41:04.836Z,59.64
2018-04-26T17:43:33.176Z,59.13
2018-04-26T17:46:01.516Z,59.03
2018-04-26T17:48:29.864Z,58.51
2018-04-26T17:50:58.184Z,58.47
2018-04-26T17:53:26.571Z,58.00
2018-04-26T17:55:54.861Z,59.08
2018-04-26T17:58:23.258Z,59.23
2018-04-26T18:00:51.604Z,58.84
2018-04-26T18:03:19.936Z,58.97
2018-04-26T18:05:48.260Z,59.22
2018-04-26T18:08:16.604Z,59.77
2018-04-26T18:10:44.933Z,60.02
2018-04-26T18:13:13.276Z,59.18
2018-04-26T18:15:41.606Z,59.18
2018-04-26T18:18:09.948Z,59.50
2018-04-26T18:20:38.273Z,61.42
2018-04-26T18:23:06.618Z,60.16
2018-04-26T18:25:34.941Z,60.48
2018-04-26T18:28:03.293Z,60.94
2018-04-26T18:30:31.616Z,59.70
2018-04-26T18:32:59.940Z,60.03
2018-04-26T18:35:28.289Z,60.66
2018-04-26T18:37:56.612Z,61.00
2018-04-26T18:40:24.965Z,61.20
2018-04-26T18:42:53.288Z,61.85
2018-04-26T18:45:21.647Z,62.04
2018-04-26T18:47:49.986Z,61.89
2018-04-26T18:50:18.352Z,61.48
2018-04-26T18:52:46.664Z,61.91
2018-04-26T18:55:15.009Z,62.23
2018-04-26T18:57:44.336Z,62.14
2018-04-26T19:00:12.732Z,61.98
2018-04-26T19:02:41.052Z,62.32
2018-04-26T19:05:09.400Z,62.69
2018-04-26T19:07:38.653Z,62.28
2018-04-26T19:10:07.001Z,62.17
2018-04-26T19:12:35.326Z,62.14
2018-04-26T19:15:03.690Z,62.15
2018-04-26T19:17:32.020Z,61.79
2018-04-26T19:20:00.368Z,61.70
2018-04-26T19:22:29.600Z,62.19
2018-04-26T19:24:57.944Z,62.37
2018-04-26T19:27:26.264Z,62.70
2018-04-26T19:29:54.608Z,63.45
2018-04-26T19:32:22.944Z,64.51
2018-04-26T19:34:51.296Z,65.14
2018-04-26T19:37:20.621Z,65.82
2018-04-26T19:39:48.964Z,65.50
2018-04-26T19:42:18.182Z,65.34
2018-04-26T19:44:46.524Z,64.96
2018-04-26T19:47:14.844Z,64.82
2018-04-26T19:49:43.189Z,65.07
2018-04-26T19:52:11.518Z,65.08
2018-04-26T19:54:39.857Z,64.88
2018-04-26T19:57:08.177Z,64.68
2018-04-26T19:59:36.521Z,64.63
2018-04-26T20:02:05.713Z,64.78
2018-04-26T20:04:34.065Z,65.17
2018-04-26T20:07:02.392Z,65.05
2018-04-26T20:09:30.738Z,64.79
2018-04-26T20:11:59.060Z,64.49
2018-04-26T20:14:27.399Z,64.29
2018-04-26T20:16:55.741Z,64.70
2018-04-26T20:19:24.097Z,64.96
2018-04-26T20:21:52.424Z,65.02
2018-04-26T20:24:20.848Z,64.95
2018-04-26T20:26:50.139Z,65.20
2018-04-26T20:29:18.495Z,65.37
2018-04-26T20:31:46.816Z,65.52
2018-04-26T20:34:15.189Z,65.66
2018-04-26T20:36:44.439Z,65.81
2018-04-26T20:39:12.769Z,66.18
2018-04-26T20:41:57.014Z,66.51
2018-04-26T20:44:37.204Z,66.59
2018-04-26T20:47:05.536Z,66.58
2018-04-26T20:49:33.888Z,66.61
2018-04-26T20:52:02.238Z,66.70
2018-04-26T20:54:30.583Z,66.65
2018-04-26T20:56:58.912Z,66.45
2018-04-26T20:59:27.274Z,66.41
2018-04-26T21:01:55.600Z,66.43
2018-04-26T21:04:23.932Z,66.57
2018-04-26T21:06:52.281Z,66.66
2018-04-26T21:09:20.604Z,66.55
2018-04-26T21:11:48.956Z,66.40
2018-04-26T21:14:17.278Z,66.32
2018-04-26T21:16:45.624Z,66.50
2018-04-26T21:19:13.948Z,66.77
2018-04-26T21:21:42.296Z,67.09
2018-04-26T21:24:10.640Z,67.84
2018-04-26T21:26:38.984Z,68.31
2018-04-26T21:29:07.398Z,68.72
2018-04-26T21:31:35.660Z,68.90
2018-04-26T21:34:03.985Z,65.17
2018-04-26T21:36:32.396Z,67.07
2018-04-26T21:39:00.716Z,68.18
2018-04-26T21:41:29.064Z,68.56
2018-04-26T21:43:57.388Z,68.59
2018-04-26T21:46:25.736Z,68.62
2018-04-26T21:48:54.076Z,68.81
2018-04-26T21:51:28.004Z,69.08
2018-04-26T21:54:02.044Z,68.93
2018-04-26T21:56:36.636Z,69.08
2018-04-26T21:59:10.674Z,68.94
2018-04-26T22:01:44.584Z,68.97
2018-04-26T22:04:16.272Z,69.02
2018-04-26T22:06:44.620Z,69.14
2018-04-26T22:09:12.964Z,69.04
2018-04-26T22:11:41.313Z,68.92
2018-04-26T22:14:09.652Z,69.17
2018-04-26T22:16:37.989Z,69.11
2018-04-26T22:19:06.321Z,68.73
2018-04-26T22:21:34.678Z,68.41
2018-04-26T22:24:03.013Z,68.08
2018-04-26T22:26:31.360Z,67.76
2018-04-26T22:28:59.689Z,67.88
2018-04-26T22:31:28.038Z,68.12
2018-04-26T22:33:56.361Z,68.34
2018-04-26T22:36:24.979Z,68.10
2018-04-26T22:38:53.384Z,68.08
2018-04-26T22:41:21.720Z,67.94
2018-04-26T22:43:50.052Z,67.87
2018-04-26T22:46:18.507Z,67.80
2018-04-26T22:48:46.872Z,67.97
2018-04-26T22:51:15.228Z,67.81
2018-04-26T22:53:43.560Z,67.86
2018-04-26T22:56:11.919Z,67.77
2018-04-26T22:58:40.248Z,68.25
2018-04-26T23:01:09.497Z,68.02
2018-04-26T23:03:37.828Z,68.15
2018-04-26T23:06:06.188Z,68.46
2018-04-26T23:08:34.528Z,68.43
2018-04-26T23:11:02.889Z,68.43
2018-04-26T23:13:31.225Z,68.60
2018-04-26T23:15:59.581Z,68.52
2018-04-26T23:18:28.861Z,68.36
2018-04-26T23:20:57.218Z,68.53
2018-04-26T23:23:25.554Z,68.48
2018-04-26T23:25:53.920Z,68.54
2018-04-26T23:28:22.252Z,68.55
2018-04-26T23:30:50.588Z,68.61
2018-04-26T23:33:18.949Z,68.36
2018-04-26T23:35:47.322Z,68.40
2018-04-26T23:38:15.640Z,68.74
2018-04-26T23:40:43.981Z,68.82
2018-04-26T23:43:12.332Z,68.76
2018-04-26T23:45:40.660Z,69.15
2018-04-26T23:48:09.115Z,69.35
2018-04-26T23:50:37.451Z,69.55
2018-04-26T23:53:05.799Z,69.61
2018-04-26T23:55:34.132Z,69.73
2018-04-26T23:58:02.477Z,69.57
